Time;durP1;ratioP1;P1;durP2;ratioP2;P2;SDS_P1;SDS_P2;PMS_P1;PMS_P2;Temp;Humidity;BMP_temperature;BMP_pressure;BME280_temperature;BME280_humidity;BME280_pressure;Samples;Min_cycle;Max_cycle;Signal;HPM_P1;HPM_P2
2022/06/10 00:01:00;;;;;;;2.95;2.50;;;14.40;99.90;;;;;;4983259;28;20084;-59
2022/06/10 00:03:27;;;;;;;2.47;2.28;;;14.30;99.90;;;;;;5009535;28;20461;-59
2022/06/10 00:05:55;;;;;;;2.40;2.20;;;14.30;99.90;;;;;;5008281;28;20041;-60
2022/06/10 00:08:28;;;;;;;2.88;2.60;;;14.30;99.90;;;;;;5029577;28;20029;-60
2022/06/10 00:10:55;;;;;;;4.00;2.38;;;14.20;99.90;;;;;;5008073;28;20091;-59
2022/06/10 00:13:25;;;;;;;3.70;2.60;;;14.20;99.90;;;;;;5029398;28;20684;-59
2022/06/10 00:15:51;;;;;;;3.03;2.60;;;14.10;99.90;;;;;;4989213;28;20034;-59
2022/06/10 00:18:17;;;;;;;2.70;1.98;;;14.10;99.90;;;;;;5009367;28;20122;-60
2022/06/10 00:20:43;;;;;;;2.60;2.40;;;14.10;99.90;;;;;;5009179;28;20517;-60
2022/06/10 00:23:10;;;;;;;3.72;2.30;;;14.00;99.90;;;;;;5028881;28;20032;-59
2022/06/10 00:25:36;;;;;;;2.42;2.22;;;14.00;99.90;;;;;;4991442;28;20112;-59
2022/06/10 00:28:03;;;;;;;3.15;2.22;;;13.90;99.90;;;;;;5009248;28;20463;-60
2022/06/10 00:30:30;;;;;;;3.05;2.17;;;13.80;99.90;;;;;;5011026;28;20045;-59
2022/06/10 00:32:57;;;;;;;2.05;1.95;;;13.70;99.90;;;;;;5011042;28;20396;-60
2022/06/10 00:35:22;;;;;;;2.67;2.47;;;13.70;99.90;;;;;;4993105;28;20049;-58
2022/06/10 00:37:48;;;;;;;2.92;1.85;;;13.70;99.90;;;;;;5008956;28;20022;-60
2022/06/10 00:40:17;;;;;;;4.03;2.20;;;13.70;99.90;;;;;;5011293;28;20091;-60
2022/06/10 00:42:42;;;;;;;2.20;2.00;;;13.60;99.90;;;;;;5028770;28;20033;-59
2022/06/10 00:45:47;;;;;;;2.38;2.17;;;13.60;99.90;;;;;;4994228;28;20085;-60
2022/06/10 00:48:17;;;;;;;2.22;2.05;;;13.60;99.90;;;;;;4989670;28;20120;-60
2022/06/10 00:50:45;;;;;;;2.80;1.88;;;13.50;99.90;;;;;;5006464;28;20025;-59
2022/06/10 00:53:13;;;;;;;1.90;1.70;;;13.50;99.90;;;;;;5028560;28;20091;-60
2022/06/10 00:55:40;;;;;;;2.50;1.77;;;13.40;99.90;;;;;;4989507;28;20034;-60
2022/06/10 00:58:34;;;;;;;2.35;1.80;;;13.40;99.90;;;;;;5008610;28;20029;-60
2022/06/10 01:01:02;;;;;;;2.78;1.98;;;13.30;99.90;;;;;;5008754;28;20049;-59
2022/06/10 01:03:28;;;;;;;1.83;1.73;;;13.30;99.90;;;;;;5007756;28;20045;-59
2022/06/10 01:05:54;;;;;;;2.60;1.70;;;13.20;99.90;;;;;;5009015;28;20037;-60
2022/06/10 01:08:22;;;;;;;2.53;1.60;;;13.20;99.90;;;;;;5028122;28;20040;-60
2022/06/10 01:11:06;;;;;;;2.88;1.90;;;13.20;99.90;;;;;;4988361;28;20113;-63
2022/06/10 01:14:00;;;;;;;2.13;1.73;;;13.20;99.90;;;;;;4989391;28;20030;-63
2022/06/10 01:16:44;;;;;;;2.03;1.80;;;13.10;99.90;;;;;;5028815;28;20021;-63
2022/06/10 01:19:31;;;;;;;1.98;1.70;;;13.00;99.90;;;;;;4999542;28;20038;-63
2022/06/10 01:22:22;;;;;;;2.22;1.73;;;13.00;99.90;;;;;;5009514;28;20034;-63
2022/06/10 01:25:11;;;;;;;2.58;1.95;;;12.90;99.90;;;;;;5009542;28;20025;-63
2022/06/10 01:28:03;;;;;;;1.48;1.38;;;12.90;99.90;;;;;;4989462;28;20390;-63
2022/06/10 01:31:04;;;;;;;1.67;1.58;;;12.90;99.90;;;;;;5004289;28;20030;-63
2022/06/10 01:33:53;;;;;;;2.00;1.60;;;12.80;99.90;;;;;;5026631;28;20028;-63
2022/06/10 01:36:28;;;;;;;2.83;1.70;;;12.80;99.90;;;;;;5017724;28;20647;-63
2022/06/10 01:39:05;;;;;;;7.03;1.92;;;12.80;99.90;;;;;;5006603;28;20116;-63
2022/06/10 01:42:20;;;;;;;1.70;1.60;;;12.80;99.90;;;;;;5012922;28;20046;-63
2022/06/10 01:45:01;;;;;;;1.85;1.30;;;12.70;99.90;;;;;;4955687;28;20666;-63
2022/06/10 01:47:41;;;;;;;2.53;1.30;;;12.60;99.90;;;;;;5026585;28;20069;-63
2022/06/10 01:50:18;;;;;;;1.95;1.70;;;12.50;99.90;;;;;;4989051;28;20035;-63
2022/06/10 01:53:04;;;;;;;1.48;1.33;;;12.50;99.90;;;;;;5001654;28;20033;-63
2022/06/10 01:55:45;;;;;;;1.50;1.30;;;12.50;99.90;;;;;;5031945;28;20037;-63
2022/06/10 01:58:44;;;;;;;1.67;1.58;;;12.40;99.90;;;;;;5007753;28;20061;-63
2022/06/10 02:01:23;;;;;;;2.45;1.60;;;12.40;99.90;;;;;;4984237;28;20034;-63
2022/06/10 02:03:56;;;;;;;1.70;1.52;;;12.30;99.90;;;;;;4992925;28;20065;-63
2022/06/10 02:06:32;;;;;;;1.58;1.35;;;12.30;99.90;;;;;;4993900;28;20169;-63
2022/06/10 02:09:07;;;;;;;1.70;1.50;;;12.30;99.90;;;;;;5032332;28;20043;-63
2022/06/10 02:11:35;;;;;;;3.55;1.83;;;12.20;99.90;;;;;;4997199;28;20040;-63
2022/06/10 02:14:16;;;;;;;2.28;2.08;;;12.20;99.90;;;;;;5032034;28;20113;-63
2022/06/10 02:16:45;;;;;;;4.30;1.98;;;12.10;99.90;;;;;;4999318;28;20032;-62
2022/06/10 02:19:28;;;;;;;3.45;1.98;;;12.00;99.90;;;;;;5031979;28;20022;-63
2022/06/10 02:22:23;;;;;;;2.92;1.60;;;12.00;99.90;;;;;;5002309;28;20423;-63
2022/06/10 02:24:52;;;;;;;2.33;1.85;;;11.90;99.90;;;;;;5027708;28;20346;-63
2022/06/10 02:27:23;;;;;;;5.53;2.28;;;11.90;99.90;;;;;;5010224;28;20490;-63
2022/06/10 02:30:14;;;;;;;2.47;1.92;;;11.90;99.90;;;;;;4992441;28;20093;-63
2022/06/10 02:32:42;;;;;;;2.92;1.98;;;11.80;99.90;;;;;;5015021;28;20052;-63
2022/06/10 02:35:10;;;;;;;2.92;1.98;;;11.70;99.90;;;;;;5012050;28;20029;-63
2022/06/10 02:37:48;;;;;;;3.78;2.65;;;11.80;99.90;;;;;;5017883;28;20030;-63
2022/06/10 02:40:14;;;;;;;5.22;1.85;;;11.80;99.90;;;;;;4992376;28;20109;-63
2022/06/10 02:43:15;;;;;;;3.05;2.30;;;11.70;99.90;;;;;;5016180;28;20109;-63
2022/06/10 02:45:57;;;;;;;2.50;2.05;;;11.80;99.90;;;;;;5031474;28;20037;-63
2022/06/10 02:48:42;;;;;;;2.75;1.95;;;11.70;99.90;;;;;;5008257;28;20033;-63
2022/06/10 02:51:07;;;;;;;2.97;2.53;;;11.70;99.90;;;;;;5030511;28;20033;-63
2022/06/10 02:53:33;;;;;;;4.13;2.28;;;11.70;99.90;;;;;;5029384;28;20034;-63
2022/06/10 02:55:59;;;;;;;3.47;2.30;;;11.70;99.90;;;;;;5011759;28;20030;-63
2022/06/10 03:01:30;;;;;;;2.13;1.92;;;11.70;99.90;;;;;;5025445;28;20508;-62
2022/06/10 03:04:27;;;;;;;2.95;2.20;;;11.70;99.90;;;;;;5030511;28;20032;-62
2022/06/10 03:07:17;;;;;;;2.75;1.77;;;11.70;99.90;;;;;;4983570;28;20390;-63
2022/06/10 03:10:02;;;;;;;2.17;1.98;;;11.80;99.90;;;;;;5030999;28;20026;-63
2022/06/10 03:12:37;;;;;;;3.38;2.33;;;11.80;99.90;;;;;;5010702;28;20029;-63
2022/06/10 03:15:30;;;;;;;2.25;2.05;;;11.80;99.90;;;;;;4991610;28;20081;-63
2022/06/10 03:18:29;;;;;;;6.97;2.95;;;11.80;99.90;;;;;;5018262;28;20497;-63
2022/06/10 03:21:17;;;;;;;3.00;2.45;;;11.80;99.90;;;;;;4987906;28;20046;-63
2022/06/10 03:23:58;;;;;;;2.40;2.20;;;11.80;99.90;;;;;;4991349;28;20034;-62
2022/06/10 03:26:40;;;;;;;3.35;2.47;;;11.90;99.90;;;;;;5027631;28;20029;-62
2022/06/10 03:29:25;;;;;;;5.07;2.72;;;11.90;99.90;;;;;;5030714;28;20018;-63
2022/06/10 03:31:57;;;;;;;3.65;2.70;;;12.10;99.90;;;;;;5008618;28;20059;-63
2022/06/10 03:34:34;;;;;;;2.97;2.40;;;12.20;99.90;;;;;;4990135;28;20521;-63
2022/06/10 03:37:02;;;;;;;4.70;2.53;;;12.60;99.90;;;;;;5003247;28;20034;-63
2022/06/10 03:39:28;;;;;;;2.55;2.10;;;12.80;99.90;;;;;;5012536;28;20041;-63
2022/06/10 03:42:04;;;;;;;2.75;2.50;;;13.90;99.90;;;;;;4995955;28;20438;-63
2022/06/10 03:44:31;;;;;;;2.30;2.10;;;15.70;99.90;;;;;;4991321;28;20038;-63
2022/06/10 03:46:57;;;;;;;2.80;1.55;;;17.10;99.90;;;;;;5013732;28;20038;-63
2022/06/10 03:49:36;;;;;;;1.90;1.60;;;18.30;96.50;;;;;;5029969;28;20126;-53
2022/06/10 03:52:01;;;;;;;2.80;1.73;;;19.40;87.60;;;;;;5001263;28;20057;-59
2022/06/10 03:54:27;;;;;;;2.45;1.70;;;20.40;79.40;;;;;;5008490;28;20064;-60
2022/06/10 03:56:53;;;;;;;2.05;1.70;;;21.20;70.20;;;;;;5011064;28;20034;-60
2022/06/10 03:59:19;;;;;;;2.80;1.67;;;21.90;63.40;;;;;;5026580;28;20112;-60
2022/06/10 04:01:45;;;;;;;5.47;1.80;;;22.70;59.50;;;;;;4986765;28;20037;-61
2022/06/10 04:04:11;;;;;;;3.42;1.70;;;23.30;53.20;;;;;;5008727;28;20433;-60
2022/06/10 04:06:36;;;;;;;4.70;1.48;;;23.90;51.50;;;;;;5014052;28;20141;-60
2022/06/10 04:09:02;;;;;;;4.05;1.45;;;24.50;47.40;;;;;;5007397;28;20042;-62
2022/06/10 04:11:27;;;;;;;2.63;1.50;;;24.90;44.10;;;;;;5014451;28;20585;-61
2022/06/10 04:13:53;;;;;;;1.70;1.60;;;25.50;40.70;;;;;;5028042;28;20660;-61
2022/06/10 04:16:18;;;;;;;3.63;1.60;;;26.00;37.60;;;;;;5006778;28;20045;-62
2022/06/10 04:18:44;;;;;;;3.17;1.27;;;26.50;35.10;;;;;;5028036;28;20033;-61
2022/06/10 04:21:09;;;;;;;2.53;1.50;;;26.90;32.70;;;;;;5007522;28;20057;-63
2022/06/10 04:23:35;;;;;;;1.65;1.55;;;27.40;31.20;;;;;;5027153;28;20040;-62
2022/06/10 04:26:00;;;;;;;1.92;1.40;;;27.90;28.80;;;;;;5007428;28;20034;-62
2022/06/10 04:28:26;;;;;;;2.00;1.15;;;28.20;27.60;;;;;;5027646;28;20028;-60
2022/06/10 04:30:52;;;;;;;1.80;1.30;;;28.50;25.80;;;;;;5012678;28;20083;-62
2022/06/10 04:33:19;;;;;;;2.35;1.33;;;29.10;25.30;;;;;;5022554;28;20884;-62
2022/06/10 04:35:46;;;;;;;2.65;1.20;;;29.40;23.20;;;;;;5008623;28;20080;-62
2022/06/10 04:38:13;;;;;;;1.23;1.13;;;29.50;21.70;;;;;;5006592;28;20037;-61
2022/06/10 04:40:39;;;;;;;2.20;1.30;;;29.80;20.80;;;;;;5009776;28;20490;-61
2022/06/10 04:43:06;;;;;;;3.22;1.42;;;30.10;20.20;;;;;;5007060;28;20046;-59
2022/06/10 04:45:35;;;;;;;2.42;1.58;;;30.60;19.10;;;;;;5029292;28;20563;-60
2022/06/10 04:48:01;;;;;;;1.92;1.55;;;31.10;16.90;;;;;;5007724;28;20033;-59
2022/06/10 04:50:28;;;;;;;1.88;1.50;;;31.40;16.90;;;;;;5009676;28;20030;-60
2022/06/10 04:52:55;;;;;;;2.13;1.67;;;31.70;15.60;;;;;;5028607;28;20565;-59
2022/06/10 04:55:21;;;;;;;4.82;1.67;;;32.20;15.30;;;;;;5009629;28;20466;-60
2022/06/10 04:57:47;;;;;;;2.38;1.60;;;32.40;14.50;;;;;;5009903;28;20033;-59
2022/06/10 05:00:17;;;;;;;3.63;1.60;;;32.80;13.30;;;;;;5009410;28;20025;-61
2022/06/10 05:02:43;;;;;;;2.63;1.60;;;32.70;12.70;;;;;;5005546;28;20029;-60
2022/06/10 05:05:09;;;;;;;2.65;1.40;;;33.20;12.00;;;;;;5009284;28;20452;-60
2022/06/10 05:07:34;;;;;;;1.80;1.30;;;33.60;11.00;;;;;;5025943;28;20059;-60
2022/06/10 05:10:00;;;;;;;2.22;1.30;;;33.90;10.50;;;;;;5008474;28;20026;-59
2022/06/10 05:12:26;;;;;;;5.45;1.70;;;34.50;7.00;;;;;;5025936;28;20500;-59
2022/06/10 05:14:51;;;;;;;1.67;1.50;;;34.10;8.90;;;;;;5028361;28;20029;-59
2022/06/10 05:17:17;;;;;;;3.42;1.70;;;34.30;8.50;;;;;;5007411;28;20046;-59
2022/06/10 05:19:44;;;;;;;2.42;1.60;;;34.60;7.40;;;;;;5008841;28;20041;-59
2022/06/10 05:22:09;;;;;;;2.67;1.52;;;34.70;6.60;;;;;;5026113;28;20041;-59
2022/06/10 05:24:35;;;;;;;3.30;1.52;;;35.50;6.00;;;;;;5028704;28;20378;-59
2022/06/10 05:27:00;;;;;;;2.67;1.45;;;35.50;4.30;;;;;;5006915;28;20076;-59
2022/06/10 05:29:27;;;;;;;1.27;1.17;;;35.20;4.80;;;;;;5008759;28;20033;-59
2022/06/10 05:31:52;;;;;;;1.90;1.17;;;35.10;4.30;;;;;;5025877;28;20037;-59
2022/06/10 05:37:02;;;;;;;3.75;1.02;;;35.20;3.70;;;;;;4993790;28;20036;-59
2022/06/10 05:39:28;;;;;;;2.90;1.27;;;35.50;3.50;;;;;;5028292;28;20448;-59
2022/06/10 05:42:05;;;;;;;2.33;1.48;;;36.30;2.80;;;;;;5006934;28;20239;-59
2022/06/10 05:44:42;;;;;;;4.45;1.25;;;37.20;2.00;;;;;;5008778;28;20028;-59
2022/06/10 05:47:10;;;;;;;1.10;1.00;;;37.50;1.00;;;;;;4995177;28;20034;-59
2022/06/10 05:49:39;;;;;;;0.95;0.90;;;37.60;1.00;;;;;;5028334;28;20033;-59
2022/06/10 05:52:06;;;;;;;2.22;0.80;;;37.90;1.00;;;;;;5006601;28;20029;-59
2022/06/10 05:54:34;;;;;;;0.88;0.80;;;37.80;1.00;;;;;;5008625;28;20101;-59
2022/06/10 05:57:00;;;;;;;3.17;1.02;;;37.60;1.00;;;;;;5025843;28;20116;-59
2022/06/10 05:59:29;;;;;;;1.20;0.80;;;37.70;1.00;;;;;;5021748;28;20102;-59
2022/06/10 06:01:55;;;;;;;3.80;1.50;;;37.80;1.00;;;;;;5006554;28;20217;-59
2022/06/10 06:04:20;;;;;;;2.40;1.02;;;38.40;1.00;;;;;;5008452;28;20026;-59
2022/06/10 06:06:46;;;;;;;2.67;0.80;;;39.00;1.00;;;;;;5025568;28;20437;-59
2022/06/10 06:09:14;;;;;;;2.05;1.05;;;39.60;1.00;;;;;;5028156;28;20025;-59
2022/06/10 06:11:41;;;;;;;2.13;0.80;;;40.20;1.00;;;;;;5006541;28;20426;-59
2022/06/10 06:14:06;;;;;;;2.38;1.00;;;40.70;1.00;;;;;;5008589;28;20511;-60
2022/06/10 06:16:32;;;;;;;3.65;0.80;;;40.90;1.00;;;;;;5027314;28;20108;-59
2022/06/10 06:18:58;;;;;;;1.52;0.82;;;40.90;1.00;;;;;;4987957;28;20057;-59
2022/06/10 06:21:23;;;;;;;0.98;0.80;;;41.20;1.00;;;;;;5007535;28;20273;-59
2022/06/10 06:23:49;;;;;;;2.53;0.75;;;41.20;1.00;;;;;;5007545;28;20073;-59
2022/06/10 06:26:15;;;;;;;1.52;0.80;;;41.10;1.00;;;;;;5027081;28;20033;-59
2022/06/10 06:28:42;;;;;;;3.08;1.13;;;40.40;1.00;;;;;;4990533;28;20372;-59
2022/06/10 06:31:08;;;;;;;2.53;0.90;;;39.50;1.00;;;;;;5007808;28;20084;-59
2022/06/10 06:33:33;;;;;;;1.58;0.88;;;38.90;1.00;;;;;;5009643;28;20041;-59
2022/06/10 06:35:59;;;;;;;1.48;0.93;;;39.10;1.00;;;;;;5026964;28;20029;-59
2022/06/10 06:38:26;;;;;;;2.03;1.10;;;40.10;1.00;;;;;;4993271;28;20030;-59
2022/06/10 06:40:52;;;;;;;1.50;0.85;;;41.20;1.00;;;;;;5014291;28;20401;-59
2022/06/10 06:43:18;;;;;;;4.57;1.02;;;41.50;1.00;;;;;;5029405;28;20038;-59
2022/06/10 06:45:43;;;;;;;1.17;0.85;;;41.70;1.00;;;;;;5012037;28;20061;-59
2022/06/10 06:48:10;;;;;;;3.30;1.50;;;41.50;1.00;;;;;;5016364;28;20034;-59
2022/06/10 06:50:41;;;;;;;1.70;1.08;;;41.70;1.00;;;;;;5030573;28;20126;-59
2022/06/10 06:53:07;;;;;;;2.83;1.30;;;41.70;1.00;;;;;;5002288;28;20482;-59
2022/06/10 06:55:34;;;;;;;2.47;0.82;;;41.80;1.00;;;;;;5030371;28;20029;-60
2022/06/10 06:57:59;;;;;;;3.15;1.10;;;41.90;1.00;;;;;;4998629;28;20513;-59
2022/06/10 07:00:27;;;;;;;2.83;1.10;;;41.60;1.00;;;;;;5013743;28;20030;-59
2022/06/10 07:02:52;;;;;;;6.25;1.25;;;41.00;1.00;;;;;;5009542;28;20018;-59
2022/06/10 07:05:18;;;;;;;2.42;1.00;;;41.00;1.00;;;;;;5030199;28;20034;-59
2022/06/10 07:07:44;;;;;;;1.40;0.73;;;41.30;1.00;;;;;;5009587;28;20042;-60
2022/06/10 07:10:12;;;;;;;3.28;1.02;;;41.90;1.00;;;;;;5030142;28;20469;-60
2022/06/10 07:12:38;;;;;;;1.42;0.70;;;41.70;1.00;;;;;;5009290;28;20394;-60
2022/06/10 07:15:05;;;;;;;4.13;1.05;;;41.90;1.00;;;;;;5029975;28;20116;-60
2022/06/10 07:17:32;;;;;;;3.42;1.10;;;41.80;1.00;;;;;;5009334;28;20053;-59
2022/06/10 07:19:58;;;;;;;4.72;1.27;;;40.00;1.00;;;;;;5010728;28;20482;-59
2022/06/10 07:22:24;;;;;;;3.67;0.93;;;40.00;1.00;;;;;;5027953;28;20124;-60
2022/06/10 07:24:50;;;;;;;2.80;1.00;;;40.50;1.00;;;;;;5030776;28;20018;-59
2022/06/10 07:27:15;;;;;;;1.58;0.80;;;40.90;1.00;;;;;;5009361;28;20108;-60
2022/06/10 07:29:41;;;;;;;3.00;0.82;;;40.40;1.00;;;;;;5010704;28;20406;-60
2022/06/10 07:32:07;;;;;;;2.30;0.85;;;40.80;1.00;;;;;;5027742;28;20456;-59
2022/06/10 07:34:32;;;;;;;2.72;0.77;;;41.00;1.00;;;;;;5030660;28;20072;-59
2022/06/10 07:36:58;;;;;;;2.65;0.80;;;41.10;1.00;;;;;;5009149;28;20079;-59
2022/06/10 07:39:23;;;;;;;2.05;0.70;;;41.30;1.00;;;;;;5010562;28;20032;-59
2022/06/10 07:42:00;;;;;;;1.98;0.90;;;41.30;1.00;;;;;;5027263;28;20358;-60
2022/06/10 07:44:30;;;;;;;0.98;0.63;;;42.00;1.00;;;;;;5030281;28;20025;-59
2022/06/10 07:46:58;;;;;;;3.72;1.00;;;42.10;1.00;;;;;;4994051;28;20023;-60
2022/06/10 07:49:24;;;;;;;2.38;0.93;;;41.90;1.00;;;;;;5012416;28;20519;-59
2022/06/10 07:51:50;;;;;;;1.83;0.82;;;41.70;1.00;;;;;;5008684;28;20501;-60
2022/06/10 07:54:15;;;;;;;1.77;0.80;;;41.00;1.00;;;;;;5010387;28;20034;-60
2022/06/10 07:56:41;;;;;;;1.67;0.80;;;40.50;1.00;;;;;;5027290;28;20040;-59
2022/06/10 07:59:08;;;;;;;3.33;0.80;;;39.70;1.00;;;;;;5029894;28;20097;-59
2022/06/10 08:01:34;;;;;;;1.98;0.70;;;39.80;1.00;;;;;;4983198;28;20030;-59
2022/06/10 08:04:00;;;;;;;3.90;0.90;;;40.20;1.00;;;;;;5027178;28;20477;-59
2022/06/10 08:06:28;;;;;;;3.00;1.02;;;41.10;1.00;;;;;;5010424;28;20517;-60
2022/06/10 08:08:54;;;;;;;2.13;0.90;;;40.60;1.00;;;;;;5009114;28;20482;-59
2022/06/10 08:11:21;;;;;;;1.45;0.60;;;40.50;1.00;;;;;;5029366;28;20033;-60
2022/06/10 08:13:47;;;;;;;2.08;0.90;;;40.90;1.00;;;;;;4990962;28;20046;-60
2022/06/10 08:16:13;;;;;;;3.58;0.90;;;41.10;1.00;;;;;;5009173;28;20034;-60
2022/06/10 08:18:39;;;;;;;2.15;0.80;;;41.50;1.00;;;;;;5010626;28;20113;-60
2022/06/10 08:23:50;;;;;;;;;;;41.40;1.00;;;;;;5007089;28;20049;-60
2022/06/10 08:26:17;;;;;;;2.28;0.95;;;40.70;1.00;;;;;;5028604;28;19913;-60
2022/06/10 08:28:45;;;;;;;1.63;0.75;;;39.30;1.00;;;;;;4991289;28;20038;-59
2022/06/10 08:31:11;;;;;;;4.10;1.10;;;38.50;1.00;;;;;;5009160;28;20482;-60
2022/06/10 08:33:37;;;;;;;3.97;0.90;;;38.30;1.00;;;;;;5010517;28;20105;-59
2022/06/10 08:36:04;;;;;;;3.78;1.40;;;38.80;1.00;;;;;;5028411;28;20497;-60
2022/06/10 08:38:30;;;;;;;2.97;0.88;;;38.80;1.00;;;;;;4993030;28;20045;-59
2022/06/10 08:41:19;;;;;;;1.90;0.82;;;38.60;1.00;;;;;;5023920;28;20041;-59
2022/06/10 08:43:54;;;;;;;2.83;0.98;;;38.60;1.00;;;;;;5007382;28;20037;-60
2022/06/10 08:46:34;;;;;;;;;;;39.20;1.00;;;;;;4990215;28;20487;-59
2022/06/10 08:49:33;;;;;;;2.30;0.90;;;40.20;1.00;;;;;;5026482;28;19913;-60
2022/06/10 08:52:38;;;;;;;1.95;0.80;;;39.70;1.00;;;;;;4993559;28;20112;-59
2022/06/10 08:55:27;;;;;;;3.33;1.00;;;39.30;1.00;;;;;;5028994;28;20025;-60
2022/06/10 08:57:54;;;;;;;4.00;1.15;;;38.90;1.00;;;;;;5008214;28;20681;-59
2022/06/10 09:00:36;;;;;;;2.35;0.90;;;39.30;1.00;;;;;;5011201;28;20038;-60
2022/06/10 09:03:29;;;;;;;3.08;1.02;;;39.80;1.00;;;;;;5010247;28;20512;-60
2022/06/10 09:06:00;;;;;;;2.08;0.88;;;40.20;1.00;;;;;;4989488;28;20065;-60
2022/06/10 09:08:32;;;;;;;2.53;0.80;;;40.00;1.00;;;;;;5002370;28;20045;-60
2022/06/10 09:11:05;;;;;;;1.67;0.70;;;40.50;1.00;;;;;;5028919;28;20350;-64
2022/06/10 09:13:31;;;;;;;2.00;0.80;;;41.00;1.00;;;;;;5003064;28;20029;-64
2022/06/10 09:16:24;;;;;;;4.57;0.88;;;41.50;1.00;;;;;;5027844;28;20580;-64
2022/06/10 09:18:50;;;;;;;2.80;0.82;;;41.50;1.00;;;;;;4992825;28;20121;-64
2022/06/10 09:21:30;;;;;;;1.27;0.60;;;41.50;1.00;;;;;;5027776;28;20125;-64
2022/06/10 09:23:58;;;;;;;2.20;1.10;;;40.90;1.00;;;;;;5006249;28;20038;-64
2022/06/10 09:26:42;;;;;;;3.97;1.25;;;40.70;1.00;;;;;;5028142;28;20065;-64
2022/06/10 09:29:09;;;;;;;2.55;0.93;;;40.50;1.00;;;;;;5028457;28;20034;-64
2022/06/10 09:31:58;;;;;;;1.77;0.82;;;40.50;1.00;;;;;;5009061;28;20037;-64
2022/06/10 09:34:47;;;;;;;2.83;1.00;;;40.30;1.00;;;;;;4991054;28;20022;-64
2022/06/10 09:37:31;;;;;;;4.15;1.00;;;40.00;1.00;;;;;;5026469;28;20029;-64
2022/06/10 09:43:33;;;;;;;1.38;0.80;;;37.60;1.00;;;;;;5008414;28;20527;-64
2022/06/10 09:46:35;;;;;;;2.92;1.20;;;37.60;1.00;;;;;;5009037;28;20077;-64
2022/06/10 09:49:03;;;;;;;2.28;1.15;;;37.30;1.00;;;;;;5006555;28;20046;-64
2022/06/10 09:52:01;;;;;;;3.90;1.23;;;38.00;1.00;;;;;;5027851;28;20227;-64
2022/06/10 09:54:26;;;;;;;4.00;1.27;;;37.90;1.00;;;;;;5028351;28;20243;-60
2022/06/10 09:57:29;;;;;;;5.88;1.23;;;37.40;1.00;;;;;;5007048;28;20041;-59
2022/06/10 10:00:01;;;;;;;2.58;1.08;;;35.40;1.00;;;;;;5007460;28;20040;-59
2022/06/10 10:02:53;;;;;;;2.95;0.85;;;32.70;1.00;;;;;;5026211;28;20022;-59
2022/06/10 10:06:00;;;;;;;3.92;1.13;;;31.10;1.00;;;;;;4988656;28;20042;-59
2022/06/10 10:08:39;;;;;;;1.13;0.75;;;30.10;1.00;;;;;;5001749;28;20084;-59
2022/06/10 10:11:31;;;;;;;2.42;0.93;;;29.30;1.00;;;;;;5028036;28;20489;-59
2022/06/10 10:14:07;;;;;;;1.95;0.80;;;28.70;1.00;;;;;;5007763;28;20101;-59
2022/06/10 10:16:54;;;;;;;2.08;0.88;;;28.00;1.00;;;;;;5032060;28;20036;-59
2022/06/10 10:19:47;;;;;;;2.20;0.70;;;27.50;1.00;;;;;;5032047;28;20026;-59
2022/06/10 10:22:44;;;;;;;3.15;0.82;;;27.20;1.00;;;;;;5000163;28;20029;-59
2022/06/10 10:25:18;;;;;;;3.28;0.68;;;27.00;1.00;;;;;;4992287;28;20030;-59
2022/06/10 10:27:46;;;;;;;3.40;1.52;;;26.70;1.00;;;;;;5028970;28;20112;-59
2022/06/10 10:30:42;;;;;;;3.08;0.80;;;26.50;1.00;;;;;;5012049;28;20030;-59
2022/06/10 10:33:14;;;;;;;4.35;1.40;;;26.10;1.10;;;;;;5005569;28;20080;-59
2022/06/10 10:35:49;;;;;;;2.08;1.00;;;25.90;2.00;;;;;;5031423;28;20606;-59
2022/06/10 10:38:30;;;;;;;2.50;1.10;;;25.70;3.20;;;;;;5006533;28;20065;-59
2022/06/10 10:40:56;;;;;;;4.32;1.27;;;25.40;1.70;;;;;;4998357;28;20042;-59
2022/06/10 10:43:29;;;;;;;3.22;1.23;;;25.40;1.80;;;;;;5000450;28;20087;-60
2022/06/10 10:46:02;;;;;;;2.97;1.30;;;25.30;3.10;;;;;;5013788;28;20037;-59
2022/06/10 10:48:37;;;;;;;3.65;1.20;;;25.20;2.80;;;;;;5006489;28;20034;-59
2022/06/10 10:51:11;;;;;;;4.93;1.42;;;25.20;2.60;;;;;;5001039;28;20027;-59
2022/06/10 10:53:41;;;;;;;2.83;0.82;;;25.10;3.80;;;;;;5003903;28;20513;-59
2022/06/10 10:56:11;;;;;;;3.17;1.05;;;25.10;4.30;;;;;;5007262;28;20448;-59
2022/06/10 10:58:54;;;;;;;2.10;0.88;;;24.90;3.80;;;;;;5022812;28;20037;-59
2022/06/10 11:01:44;;;;;;;2.75;1.10;;;24.90;3.20;;;;;;4989072;28;20034;-59
2022/06/10 11:04:24;;;;;;;3.38;1.10;;;24.90;4.00;;;;;;5015135;28;20112;-59
2022/06/10 11:07:18;;;;;;;3.63;0.95;;;24.90;3.80;;;;;;4994079;28;20032;-59
2022/06/10 11:09:47;;;;;;;2.88;1.00;;;24.80;3.40;;;;;;5022945;28;20084;-59
2022/06/10 11:12:17;;;;;;;2.03;0.77;;;24.90;3.00;;;;;;5013876;28;20080;-59
2022/06/10 11:14:47;;;;;;;4.65;1.10;;;24.80;3.20;;;;;;5008979;28;20107;-59
2022/06/10 11:17:12;;;;;;;4.13;1.10;;;24.80;3.30;;;;;;5029696;28;20032;-59
2022/06/10 11:19:40;;;;;;;4.28;0.90;;;24.90;3.20;;;;;;5010907;28;20021;-59
2022/06/10 11:22:23;;;;;;;4.00;1.40;;;25.00;3.30;;;;;;5030693;28;20033;-59
2022/06/10 11:25:03;;;;;;;2.47;1.02;;;24.90;4.20;;;;;;4991217;28;20061;-59
2022/06/10 11:27:35;;;;;;;6.25;1.20;;;24.80;4.20;;;;;;5030719;28;20049;-59
2022/06/10 11:30:21;;;;;;;4.15;1.20;;;24.80;4.20;;;;;;5008822;28;20049;-59
2022/06/10 11:32:49;;;;;;;4.95;1.17;;;24.70;4.10;;;;;;5010736;28;20038;-59
2022/06/10 11:35:27;;;;;;;1.65;0.75;;;24.70;3.90;;;;;;5027802;28;20658;-59
2022/06/10 11:38:00;;;;;;;2.85;0.88;;;24.60;4.60;;;;;;5030496;28;20022;-59
2022/06/10 11:40:46;;;;;;;5.03;1.15;;;24.50;4.80;;;;;;5001890;28;20025;-60
2022/06/10 11:43:22;;;;;;;4.78;1.45;;;24.50;4.60;;;;;;5030438;28;20029;-59
2022/06/10 11:46:01;;;;;;;4.32;1.58;;;24.50;5.70;;;;;;5007767;28;20033;-59
2022/06/10 11:49:02;;;;;;;4.35;1.40;;;24.50;5.00;;;;;;4990945;28;20030;-59
2022/06/10 11:51:43;;;;;;;2.53;0.85;;;24.50;5.90;;;;;;5016787;28;20046;-59
2022/06/10 11:54:49;;;;;;;3.92;1.30;;;24.60;4.30;;;;;;4990759;28;20089;-59
2022/06/10 12:00:52;;;;;;;1.73;0.80;;;24.60;3.00;;;;;;4995950;28;20064;-59
2022/06/10 12:03:28;;;;;;;3.60;0.85;;;24.60;3.00;;;;;;4987705;28;20038;-59
2022/06/10 12:06:15;;;;;;;1.35;0.60;;;24.60;2.60;;;;;;5009323;28;20548;-59
2022/06/10 12:09:01;;;;;;;5.65;0.88;;;24.70;3.00;;;;;;4990574;28;20530;-59
2022/06/10 12:11:38;;;;;;;5.90;1.20;;;24.70;3.50;;;;;;5012387;28;20560;-60
2022/06/10 12:14:21;;;;;;;5.68;1.67;;;24.70;2.60;;;;;;4990564;28;20113;-59
2022/06/10 12:16:57;;;;;;;2.65;0.90;;;24.70;2.50;;;;;;5003940;28;20129;-60
2022/06/10 12:19:33;;;;;;;2.70;0.90;;;24.70;2.30;;;;;;4990531;28;20057;-60
2022/06/10 12:21:58;;;;;;;1.02;0.60;;;24.70;2.10;;;;;;5000305;28;20038;-59
2022/06/10 12:24:24;;;;;;;1.88;0.70;;;24.60;1.80;;;;;;5028846;28;20036;-59
2022/06/10 12:27:02;;;;;;;2.58;0.93;;;24.60;2.00;;;;;;5008247;28;20058;-59
2022/06/10 12:29:44;;;;;;;5.20;0.93;;;24.60;2.20;;;;;;5029083;28;20029;-59
2022/06/10 12:32:43;;;;;;;3.97;0.98;;;24.60;2.20;;;;;;5001628;28;20029;-59
2022/06/10 12:35:20;;;;;;;2.60;0.85;;;24.50;1.80;;;;;;5029062;28;20030;-59
2022/06/10 12:37:55;;;;;;;2.95;1.05;;;24.50;2.00;;;;;;5006186;28;20419;-59
2022/06/10 12:40:57;;;;;;;4.15;1.13;;;24.40;2.90;;;;;;4989948;28;20088;-59
2022/06/10 12:43:29;;;;;;;6.78;1.40;;;24.30;2.40;;;;;;4989961;28;20104;-59
2022/06/10 12:45:58;;;;;;;4.63;0.85;;;24.10;2.30;;;;;;4994543;28;20055;-59
2022/06/10 12:48:34;;;;;;;3.00;0.90;;;23.90;2.30;;;;;;5029165;28;20388;-59
2022/06/10 12:51:18;;;;;;;2.45;0.73;;;23.90;2.30;;;;;;4995829;28;20396;-60
2022/06/10 12:54:01;;;;;;;2.42;1.02;;;24.00;3.00;;;;;;5028940;28;20032;-59
2022/06/10 12:56:33;;;;;;;2.55;1.00;;;24.00;3.20;;;;;;5003117;28;20112;-59
2022/06/10 12:59:04;;;;;;;1.38;0.73;;;24.10;3.20;;;;;;5009348;28;20505;-59
2022/06/10 13:01:29;;;;;;;1.40;0.90;;;24.10;2.70;;;;;;5018736;28;20437;-59
2022/06/10 13:03:57;;;;;;;2.85;1.23;;;24.10;2.60;;;;;;5009547;28;20041;-59
2022/06/10 13:06:24;;;;;;;2.53;0.80;;;24.00;2.80;;;;;;5026338;28;20434;-59
2022/06/10 13:09:10;;;;;;;5.15;0.82;;;24.00;3.00;;;;;;5026547;28;20420;-59
2022/06/10 13:11:45;;;;;;;6.00;1.00;;;24.10;2.70;;;;;;5016953;28;20036;-59
2022/06/10 13:14:38;;;;;;;3.13;0.83;;;24.20;1.90;;;;;;5007636;28;20490;-59
2022/06/10 13:17:23;;;;;;;3.60;0.73;;;24.10;2.30;;;;;;4988622;28;20038;-59
2022/06/10 13:19:51;;;;;;;3.20;0.80;;;24.10;2.20;;;;;;5007695;28;20397;-59
2022/06/10 13:22:20;;;;;;;3.38;1.00;;;24.10;1.20;;;;;;5027934;28;20562;-59
2022/06/10 13:25:08;;;;;;;2.13;0.80;;;24.00;1.50;;;;;;5006548;28;20022;-59
2022/06/10 13:27:44;;;;;;;2.33;1.00;;;24.10;2.20;;;;;;5008083;28;20034;-59
2022/06/10 13:30:14;;;;;;;2.83;0.95;;;24.20;2.10;;;;;;5025180;28;20034;-59
2022/06/10 13:32:42;;;;;;;4.40;0.93;;;24.20;2.20;;;;;;5027667;28;20029;-59
2022/06/10 13:35:15;;;;;;;2.88;0.60;;;24.10;2.10;;;;;;4988532;28;20405;-59
2022/06/10 13:37:41;;;;;;;2.70;0.90;;;24.10;2.20;;;;;;5008085;28;20116;-59
2022/06/10 13:40:22;;;;;;;4.13;1.08;;;24.00;2.90;;;;;;5011855;28;20482;-59
2022/06/10 13:42:52;;;;;;;5.88;1.00;;;24.10;2.30;;;;;;4988134;28;20081;-59